sensor_id;sensor_type;location;lat;lon;timestamp;temperature;humidity
66373;SHT30;53168;51.146;17.120;2023-11-19T00:01:18;2.69;83.70
66373;SHT30;53168;51.146;17.120;2023-11-19T00:04:29;2.66;83.70
66373;SHT30;53168;51.146;17.120;2023-11-19T00:07:18;2.62;83.80
66373;SHT30;53168;51.146;17.120;2023-11-19T00:10:14;2.60;83.80
66373;SHT30;53168;51.146;17.120;2023-11-19T00:12:55;2.58;83.81
66373;SHT30;53168;51.146;17.120;2023-11-19T00:15:30;2.57;83.87
66373;SHT30;53168;51.146;17.120;2023-11-19T00:18:09;2.53;83.91
66373;SHT30;53168;51.146;17.120;2023-11-19T00:20:42;2.52;83.99
66373;SHT30;53168;51.146;17.120;2023-11-19T00:23:17;2.49;84.00
66373;SHT30;53168;51.146;17.120;2023-11-19T00:25:51;2.48;84.07
66373;SHT30;53168;51.146;17.120;2023-11-19T00:28:26;2.46;84.14
66373;SHT30;53168;51.146;17.120;2023-11-19T00:31:02;2.46;84.20
66373;SHT30;53168;51.146;17.120;2023-11-19T00:33:36;2.45;84.24
66373;SHT30;53168;51.146;17.120;2023-11-19T00:36:20;2.44;84.29
66373;SHT30;53168;51.146;17.120;2023-11-19T00:38:59;2.44;84.33
66373;SHT30;53168;51.146;17.120;2023-11-19T00:41:33;2.44;84.35
66373;SHT30;53168;51.146;17.120;2023-11-19T00:44:09;2.44;84.40
66373;SHT30;53168;51.146;17.120;2023-11-19T00:47:02;2.43;84.39
66373;SHT30;53168;51.146;17.120;2023-11-19T00:49:36;2.43;84.40
66373;SHT30;53168;51.146;17.120;2023-11-19T00:52:11;2.41;84.39
66373;SHT30;53168;51.146;17.120;2023-11-19T00:54:45;2.39;84.40
66373;SHT30;53168;51.146;17.120;2023-11-19T00:57:20;2.36;84.40
66373;SHT30;53168;51.146;17.120;2023-11-19T00:59:56;2.33;84.41
66373;SHT30;53168;51.146;17.120;2023-11-19T01:02:30;2.28;84.47
66373;SHT30;53168;51.146;17.120;2023-11-19T01:05:07;2.24;84.50
66373;SHT30;53168;51.146;17.120;2023-11-19T01:07:48;2.20;84.50
66373;SHT30;53168;51.146;17.120;2023-11-19T01:10:25;2.17;84.53
66373;SHT30;53168;51.146;17.120;2023-11-19T01:13:00;2.13;84.58
66373;SHT30;53168;51.146;17.120;2023-11-19T01:15:36;2.10;84.60
66373;SHT30;53168;51.146;17.120;2023-11-19T01:18:13;2.06;84.60
66373;SHT30;53168;51.146;17.120;2023-11-19T01:20:51;2.03;84.60
66373;SHT30;53168;51.146;17.120;2023-11-19T01:23:28;2.00;84.60
66373;SHT30;53168;51.146;17.120;2023-11-19T01:26:04;1.97;84.61
66373;SHT30;53168;51.146;17.120;2023-11-19T01:28:42;1.94;84.64
66373;SHT30;53168;51.146;17.120;2023-11-19T01:31:33;1.92;84.61
66373;SHT30;53168;51.146;17.120;2023-11-19T01:34:09;1.88;84.63
66373;SHT30;53168;51.146;17.120;2023-11-19T01:36:48;1.86;84.70
66373;SHT30;53168;51.146;17.120;2023-11-19T01:39:22;1.85;84.70
66373;SHT30;53168;51.146;17.120;2023-11-19T01:42:12;1.84;84.69
66373;SHT30;53168;51.146;17.120;2023-11-19T01:44:59;1.83;84.64
66373;SHT30;53168;51.146;17.120;2023-11-19T01:47:41;1.85;84.65
66373;SHT30;53168;51.146;17.120;2023-11-19T01:50:15;1.85;84.60
66373;SHT30;53168;51.146;17.120;2023-11-19T01:52:51;1.87;84.60
66373;SHT30;53168;51.146;17.120;2023-11-19T01:55:29;1.88;84.57
66373;SHT30;53168;51.146;17.120;2023-11-19T01:58:04;1.90;84.51
66373;SHT30;53168;51.146;17.120;2023-11-19T02:00:40;1.92;84.50
66373;SHT30;53168;51.146;17.120;2023-11-19T02:03:19;1.92;84.50
66373;SHT30;53168;51.146;17.120;2023-11-19T02:08:43;1.91;84.46
66373;SHT30;53168;51.146;17.120;2023-11-19T02:11:20;1.92;84.45
66373;SHT30;53168;51.146;17.120;2023-11-19T02:13:54;1.91;84.47
66373;SHT30;53168;51.146;17.120;2023-11-19T02:16:29;1.92;84.45
66373;SHT30;53168;51.146;17.120;2023-11-19T02:19:03;1.93;84.44
66373;SHT30;53168;51.146;17.120;2023-11-19T02:21:40;1.94;84.42
66373;SHT30;53168;51.146;17.120;2023-11-19T02:24:20;1.95;84.41
66373;SHT30;53168;51.146;17.120;2023-11-19T02:27:19;1.96;84.40
66373;SHT30;53168;51.146;17.120;2023-11-19T02:30:11;1.97;84.40
66373;SHT30;53168;51.146;17.120;2023-11-19T02:32:45;1.97;84.40
66373;SHT30;53168;51.146;17.120;2023-11-19T02:35:19;1.98;84.40
66373;SHT30;53168;51.146;17.120;2023-11-19T02:37:53;1.99;84.40
66373;SHT30;53168;51.146;17.120;2023-11-19T02:40:51;1.98;84.40
66373;SHT30;53168;51.146;17.120;2023-11-19T02:43:26;1.98;84.39
66373;SHT30;53168;51.146;17.120;2023-11-19T02:46:05;1.98;84.36
66373;SHT30;53168;51.146;17.120;2023-11-19T02:48:46;1.99;84.38
66373;SHT30;53168;51.146;17.120;2023-11-19T02:51:20;2.00;84.38
66373;SHT30;53168;51.146;17.120;2023-11-19T02:53:56;2.00;84.38
66373;SHT30;53168;51.146;17.120;2023-11-19T02:56:30;2.00;84.34
66373;SHT30;53168;51.146;17.120;2023-11-19T02:59:08;1.99;84.31
66373;SHT30;53168;51.146;17.120;2023-11-19T03:01:58;1.99;84.30
66373;SHT30;53168;51.146;17.120;2023-11-19T03:04:33;1.99;84.30
66373;SHT30;53168;51.146;17.120;2023-11-19T03:07:07;1.98;84.32
66373;SHT30;53168;51.146;17.120;2023-11-19T03:09:43;1.97;84.31
66373;SHT30;53168;51.146;17.120;2023-11-19T03:12:18;1.96;84.32
66373;SHT30;53168;51.146;17.120;2023-11-19T03:14:52;1.96;84.31
66373;SHT30;53168;51.146;17.120;2023-11-19T03:17:27;1.95;84.32
66373;SHT30;53168;51.146;17.120;2023-11-19T03:20:03;1.95;84.31
66373;SHT30;53168;51.146;17.120;2023-11-19T03:22:46;1.94;84.30
66373;SHT30;53168;51.146;17.120;2023-11-19T03:25:27;1.94;84.30
66373;SHT30;53168;51.146;17.120;2023-11-19T03:29:00;1.96;84.30
66373;SHT30;53168;51.146;17.120;2023-11-19T03:31:34;1.95;84.30
66373;SHT30;53168;51.146;17.120;2023-11-19T03:34:09;1.96;84.29
66373;SHT30;53168;51.146;17.120;2023-11-19T03:36:43;1.96;84.30
66373;SHT30;53168;51.146;17.120;2023-11-19T03:39:17;1.95;84.30
66373;SHT30;53168;51.146;17.120;2023-11-19T03:41:51;1.95;84.30
66373;SHT30;53168;51.146;17.120;2023-11-19T03:47:34;1.94;84.28
66373;SHT30;53168;51.146;17.120;2023-11-19T03:50:09;1.93;84.27
66373;SHT30;53168;51.146;17.120;2023-11-19T03:52:47;1.94;84.29
66373;SHT30;53168;51.146;17.120;2023-11-19T03:55:23;1.94;84.29
66373;SHT30;53168;51.146;17.120;2023-11-19T03:58:00;1.94;84.23
66373;SHT30;53168;51.146;17.120;2023-11-19T04:00:35;1.96;84.21
66373;SHT30;53168;51.146;17.120;2023-11-19T04:03:11;1.96;84.20
66373;SHT30;53168;51.146;17.120;2023-11-19T04:05:44;1.98;84.15
66373;SHT30;53168;51.146;17.120;2023-11-19T04:08:24;1.99;84.10
66373;SHT30;53168;51.146;17.120;2023-11-19T04:11:01;2.00;84.10
66373;SHT30;53168;51.146;17.120;2023-11-19T04:13:36;2.01;84.04
66373;SHT30;53168;51.146;17.120;2023-11-19T04:16:10;2.02;84.01
66373;SHT30;53168;51.146;17.120;2023-11-19T04:18:46;2.02;84.00
66373;SHT30;53168;51.146;17.120;2023-11-19T04:21:25;2.01;83.98
66373;SHT30;53168;51.146;17.120;2023-11-19T04:23:59;2.00;83.93
66373;SHT30;53168;51.146;17.120;2023-11-19T04:26:34;2.00;83.91
66373;SHT30;53168;51.146;17.120;2023-11-19T04:29:13;2.01;83.90
66373;SHT30;53168;51.146;17.120;2023-11-19T04:31:51;2.02;83.90
66373;SHT30;53168;51.146;17.120;2023-11-19T04:34:26;2.04;83.88
66373;SHT30;53168;51.146;17.120;2023-11-19T04:37:00;2.04;83.81
66373;SHT30;53168;51.146;17.120;2023-11-19T04:39:38;2.04;83.80
66373;SHT30;53168;51.146;17.120;2023-11-19T04:42:12;2.04;83.80
66373;SHT30;53168;51.146;17.120;2023-11-19T04:44:48;2.05;83.81
66373;SHT30;53168;51.146;17.120;2023-11-19T04:47:22;2.06;83.81
66373;SHT30;53168;51.146;17.120;2023-11-19T04:49:56;2.06;83.80
66373;SHT30;53168;51.146;17.120;2023-11-19T04:52:31;2.08;83.80
66373;SHT30;53168;51.146;17.120;2023-11-19T04:55:20;2.09;83.80
66373;SHT30;53168;51.146;17.120;2023-11-19T04:57:57;2.10;83.80
66373;SHT30;53168;51.146;17.120;2023-11-19T05:00:30;2.13;83.79
66373;SHT30;53168;51.146;17.120;2023-11-19T05:03:05;2.14;83.76
66373;SHT30;53168;51.146;17.120;2023-11-19T05:05:42;2.16;83.71
66373;SHT30;53168;51.146;17.120;2023-11-19T05:08:16;2.18;83.68
66373;SHT30;53168;51.146;17.120;2023-11-19T05:10:50;2.20;83.67
66373;SHT30;53168;51.146;17.120;2023-11-19T05:13:24;2.22;83.63
66373;SHT30;53168;51.146;17.120;2023-11-19T05:15:59;2.23;83.61
66373;SHT30;53168;51.146;17.120;2023-11-19T05:18:32;2.24;83.60
66373;SHT30;53168;51.146;17.120;2023-11-19T05:21:07;2.26;83.60
66373;SHT30;53168;51.146;17.120;2023-11-19T05:23:41;2.29;83.60
66373;SHT30;53168;51.146;17.120;2023-11-19T05:26:21;2.30;83.54
66373;SHT30;53168;51.146;17.120;2023-11-19T05:28:56;2.30;83.51
66373;SHT30;53168;51.146;17.120;2023-11-19T05:31:30;2.32;83.51
66373;SHT30;53168;51.146;17.120;2023-11-19T05:34:11;2.33;83.50
66373;SHT30;53168;51.146;17.120;2023-11-19T05:36:46;2.34;83.50
66373;SHT30;53168;51.146;17.120;2023-11-19T05:39:21;2.35;83.50
66373;SHT30;53168;51.146;17.120;2023-11-19T05:41:56;2.36;83.50
66373;SHT30;53168;51.146;17.120;2023-11-19T05:44:30;2.37;83.50
66373;SHT30;53168;51.146;17.120;2023-11-19T05:47:04;2.36;83.50
66373;SHT30;53168;51.146;17.120;2023-11-19T05:49:39;2.37;83.50
66373;SHT30;53168;51.146;17.120;2023-11-19T05:52:13;2.36;83.50
66373;SHT30;53168;51.146;17.120;2023-11-19T05:55:03;2.38;83.50
66373;SHT30;53168;51.146;17.120;2023-11-19T05:57:47;2.39;83.51
66373;SHT30;53168;51.146;17.120;2023-11-19T06:00:23;2.41;83.50
66373;SHT30;53168;51.146;17.120;2023-11-19T06:02:58;2.45;83.50
66373;SHT30;53168;51.146;17.120;2023-11-19T06:05:32;2.47;83.50
66373;SHT30;53168;51.146;17.120;2023-11-19T06:08:07;2.50;83.46
66373;SHT30;53168;51.146;17.120;2023-11-19T06:10:41;2.49;83.40
66373;SHT30;53168;51.146;17.120;2023-11-19T06:13:18;2.51;83.43
66373;SHT30;53168;51.146;17.120;2023-11-19T06:15:55;2.52;83.40
66373;SHT30;53168;51.146;17.120;2023-11-19T06:18:29;2.55;83.40
66373;SHT30;53168;51.146;17.120;2023-11-19T06:21:04;2.57;83.39
66373;SHT30;53168;51.146;17.120;2023-11-19T06:23:39;2.58;83.35
66373;SHT30;53168;51.146;17.120;2023-11-19T06:26:13;2.61;83.33
66373;SHT30;53168;51.146;17.120;2023-11-19T06:28:47;2.63;83.30
66373;SHT30;53168;51.146;17.120;2023-11-19T06:31:21;2.65;83.30
66373;SHT30;53168;51.146;17.120;2023-11-19T06:33:56;2.66;83.30
66373;SHT30;53168;51.146;17.120;2023-11-19T06:36:30;2.67;83.30
66373;SHT30;53168;51.146;17.120;2023-11-19T06:39:05;2.69;83.29
66373;SHT30;53168;51.146;17.120;2023-11-19T06:41:46;2.71;83.30
66373;SHT30;53168;51.146;17.120;2023-11-19T06:44:20;2.72;83.29
66373;SHT30;53168;51.146;17.120;2023-11-19T06:46:58;2.74;83.22
66373;SHT30;53168;51.146;17.120;2023-11-19T06:49:32;2.75;83.22
66373;SHT30;53168;51.146;17.120;2023-11-19T06:52:07;2.77;83.22
66373;SHT30;53168;51.146;17.120;2023-11-19T06:54:42;2.81;83.21
66373;SHT30;53168;51.146;17.120;2023-11-19T06:57:17;2.84;83.20
66373;SHT30;53168;51.146;17.120;2023-11-19T06:59:52;2.87;83.19
66373;SHT30;53168;51.146;17.120;2023-11-19T07:02:30;2.89;83.18
66373;SHT30;53168;51.146;17.120;2023-11-19T07:05:05;2.96;83.15
66373;SHT30;53168;51.146;17.120;2023-11-19T07:07:42;3.01;83.09
66373;SHT30;53168;51.146;17.120;2023-11-19T07:10:18;3.05;82.99
66373;SHT30;53168;51.146;17.120;2023-11-19T07:12:53;3.11;82.89
66373;SHT30;53168;51.146;17.120;2023-11-19T07:15:27;3.13;82.83
66373;SHT30;53168;51.146;17.120;2023-11-19T07:18:01;3.16;82.80
66373;SHT30;53168;51.146;17.120;2023-11-19T07:20:36;3.20;82.74
66373;SHT30;53168;51.146;17.120;2023-11-19T07:23:11;3.24;82.70
66373;SHT30;53168;51.146;17.120;2023-11-19T07:25:47;3.26;82.70
66373;SHT30;53168;51.146;17.120;2023-11-19T07:28:23;3.29;82.63
66373;SHT30;53168;51.146;17.120;2023-11-19T07:30:57;3.33;82.64
66373;SHT30;53168;51.146;17.120;2023-11-19T07:33:32;3.37;82.53
66373;SHT30;53168;51.146;17.120;2023-11-19T07:36:11;3.41;82.42
66373;SHT30;53168;51.146;17.120;2023-11-19T07:38:48;3.45;82.41
66373;SHT30;53168;51.146;17.120;2023-11-19T07:41:22;3.50;82.36
66373;SHT30;53168;51.146;17.120;2023-11-19T07:43:57;3.53;82.26
66373;SHT30;53168;51.146;17.120;2023-11-19T07:46:50;3.55;82.18
66373;SHT30;53168;51.146;17.120;2023-11-19T07:49:25;3.58;82.09
66373;SHT30;53168;51.146;17.120;2023-11-19T07:52:10;3.60;82.00
66373;SHT30;53168;51.146;17.120;2023-11-19T07:54:49;3.62;81.97
66373;SHT30;53168;51.146;17.120;2023-11-19T07:57:27;3.61;81.90
66373;SHT30;53168;51.146;17.120;2023-11-19T08:00:17;3.61;81.84
66373;SHT30;53168;51.146;17.120;2023-11-19T08:02:53;3.61;81.90
66373;SHT30;53168;51.146;17.120;2023-11-19T08:05:33;3.61;81.90
66373;SHT30;53168;51.146;17.120;2023-11-19T08:08:08;3.62;81.90
66373;SHT30;53168;51.146;17.120;2023-11-19T08:10:42;3.61;81.91
66373;SHT30;53168;51.146;17.120;2023-11-19T08:13:37;3.61;81.98
66373;SHT30;53168;51.146;17.120;2023-11-19T08:16:17;3.61;82.01
66373;SHT30;53168;51.146;17.120;2023-11-19T08:19:04;3.61;82.05
66373;SHT30;53168;51.146;17.120;2023-11-19T08:21:40;3.61;82.07
66373;SHT30;53168;51.146;17.120;2023-11-19T08:24:15;3.59;82.02
66373;SHT30;53168;51.146;17.120;2023-11-19T08:26:49;3.56;82.06
66373;SHT30;53168;51.146;17.120;2023-11-19T08:29:31;3.56;82.13
66373;SHT30;53168;51.146;17.120;2023-11-19T08:32:09;3.55;82.11
66373;SHT30;53168;51.146;17.120;2023-11-19T08:34:51;3.54;82.12
66373;SHT30;53168;51.146;17.120;2023-11-19T08:37:41;3.54;82.12
66373;SHT30;53168;51.146;17.120;2023-11-19T08:43:18;3.50;82.20
66373;SHT30;53168;51.146;17.120;2023-11-19T08:45:57;3.45;82.20
66373;SHT30;53168;51.146;17.120;2023-11-19T08:48:40;3.40;82.20
66373;SHT30;53168;51.146;17.120;2023-11-19T08:51:27;3.33;82.21
66373;SHT30;53168;51.146;17.120;2023-11-19T08:54:11;3.27;82.27
66373;SHT30;53168;51.146;17.120;2023-11-19T08:56:52;3.20;82.33
66373;SHT30;53168;51.146;17.120;2023-11-19T08:59:27;3.12;82.40
66373;SHT30;53168;51.146;17.120;2023-11-19T09:02:23;3.06;82.46
66373;SHT30;53168;51.146;17.120;2023-11-19T09:05:08;3.01;82.57
66373;SHT30;53168;51.146;17.120;2023-11-19T09:08:00;2.98;82.72
66373;SHT30;53168;51.146;17.120;2023-11-19T09:10:47;2.99;82.81
66373;SHT30;53168;51.146;17.120;2023-11-19T09:13:25;3.01;82.91
66373;SHT30;53168;51.146;17.120;2023-11-19T09:16:11;3.03;82.96
66373;SHT30;53168;51.146;17.120;2023-11-19T09:18:45;3.06;83.02
66373;SHT30;53168;51.146;17.120;2023-11-19T09:21:22;3.09;83.08
66373;SHT30;53168;51.146;17.120;2023-11-19T09:24:00;3.11;83.10
66373;SHT30;53168;51.146;17.120;2023-11-19T09:26:36;3.15;83.18
66373;SHT30;53168;51.146;17.120;2023-11-19T09:29:14;3.20;83.20
66373;SHT30;53168;51.146;17.120;2023-11-19T09:32:18;3.25;83.20
66373;SHT30;53168;51.146;17.120;2023-11-19T09:34:52;3.32;83.28
66373;SHT30;53168;51.146;17.120;2023-11-19T09:37:27;3.38;83.30
66373;SHT30;53168;51.146;17.120;2023-11-19T09:40:01;3.46;83.30
66373;SHT30;53168;51.146;17.120;2023-11-19T09:42:45;3.53;83.30
66373;SHT30;53168;51.146;17.120;2023-11-19T09:45:22;3.61;83.31
66373;SHT30;53168;51.146;17.120;2023-11-19T09:48:20;3.65;83.23
66373;SHT30;53168;51.146;17.120;2023-11-19T09:50:57;3.69;83.21
66373;SHT30;53168;51.146;17.120;2023-11-19T09:53:34;3.72;83.20
66373;SHT30;53168;51.146;17.120;2023-11-19T09:56:09;3.75;83.20
66373;SHT30;53168;51.146;17.120;2023-11-19T09:58:51;3.77;83.23
66373;SHT30;53168;51.146;17.120;2023-11-19T10:04:20;3.84;83.30
66373;SHT30;53168;51.146;17.120;2023-11-19T10:07:00;3.85;83.32
66373;SHT30;53168;51.146;17.120;2023-11-19T10:09:49;3.87;83.40
66373;SHT30;53168;51.146;17.120;2023-11-19T10:15:45;3.96;83.49
66373;SHT30;53168;51.146;17.120;2023-11-19T10:18:29;4.01;83.50
66373;SHT30;53168;51.146;17.120;2023-11-19T10:21:21;4.09;83.46
66373;SHT30;53168;51.146;17.120;2023-11-19T10:56:39;5.15;83.08
66373;SHT30;53168;51.146;17.120;2023-11-19T10:59:21;5.14;83.10
66373;SHT30;53168;51.146;17.120;2023-11-19T11:02:07;5.09;83.10
66373;SHT30;53168;51.146;17.120;2023-11-19T11:04:49;5.03;83.13
66373;SHT30;53168;51.146;17.120;2023-11-19T11:07:32;4.98;83.21
66373;SHT30;53168;51.146;17.120;2023-11-19T11:10:18;4.91;83.28
66373;SHT30;53168;51.146;17.120;2023-11-19T11:13:15;4.85;83.36
66373;SHT30;53168;51.146;17.120;2023-11-19T11:16:14;4.80;83.48
66373;SHT30;53168;51.146;17.120;2023-11-19T11:22:09;4.75;83.73
66373;SHT30;53168;51.146;17.120;2023-11-19T11:25:31;4.76;83.80
66373;SHT30;53168;51.146;17.120;2023-11-19T11:28:28;4.75;83.88
66373;SHT30;53168;51.146;17.120;2023-11-19T11:38:23;4.76;84.10
66373;SHT30;53168;51.146;17.120;2023-11-19T11:41:19;4.77;84.16
66373;SHT30;53168;51.146;17.120;2023-11-19T11:44:03;4.80;84.22
66373;SHT30;53168;51.146;17.120;2023-11-19T11:47:04;4.84;84.30
66373;SHT30;53168;51.146;17.120;2023-11-19T11:49:43;4.87;84.38
66373;SHT30;53168;51.146;17.120;2023-11-19T11:52:39;4.91;84.40
66373;SHT30;53168;51.146;17.120;2023-11-19T11:56:01;4.97;84.49
66373;SHT30;53168;51.146;17.120;2023-11-19T11:58:46;5.00;84.50
66373;SHT30;53168;51.146;17.120;2023-11-19T12:12:48;5.26;84.62
66373;SHT30;53168;51.146;17.120;2023-11-19T12:16:10;5.33;84.68
66373;SHT30;53168;51.146;17.120;2023-11-19T12:19:14;5.41;84.61
66373;SHT30;53168;51.146;17.120;2023-11-19T12:21:53;5.52;84.63
66373;SHT30;53168;51.146;17.120;2023-11-19T12:25:19;5.62;84.62
66373;SHT30;53168;51.146;17.120;2023-11-19T12:27:56;5.68;84.60
66373;SHT30;53168;51.146;17.120;2023-11-19T12:30:41;5.73;84.59
66373;SHT30;53168;51.146;17.120;2023-11-19T12:33:50;5.80;84.59
66373;SHT30;53168;51.146;17.120;2023-11-19T12:36:50;5.88;84.51
66373;SHT30;53168;51.146;17.120;2023-11-19T12:39:56;5.96;84.50
66373;SHT30;53168;51.146;17.120;2023-11-19T12:42:39;6.04;84.46
66373;SHT30;53168;51.146;17.120;2023-11-19T12:45:21;6.11;84.41
66373;SHT30;53168;51.146;17.120;2023-11-19T12:48:11;6.19;84.40
66373;SHT30;53168;51.146;17.120;2023-11-19T12:51:23;6.26;84.39
66373;SHT30;53168;51.146;17.120;2023-11-19T12:54:13;6.29;84.39
66373;SHT30;53168;51.146;17.120;2023-11-19T12:56:54;6.32;84.33
66373;SHT30;53168;51.146;17.120;2023-11-19T12:59:31;6.36;84.31
66373;SHT30;53168;51.146;17.120;2023-11-19T13:05:51;6.49;84.30
66373;SHT30;53168;51.146;17.120;2023-11-19T13:09:24;6.56;84.21
66373;SHT30;53168;51.146;17.120;2023-11-19T13:12:18;6.65;84.20
66373;SHT30;53168;51.146;17.120;2023-11-19T13:14:52;6.68;84.17
66373;SHT30;53168;51.146;17.120;2023-11-19T13:17:28;6.69;84.07
66373;SHT30;53168;51.146;17.120;2023-11-19T13:20:03;6.76;84.10
66373;SHT30;53168;51.146;17.120;2023-11-19T13:22:39;6.82;84.09
66373;SHT30;53168;51.146;17.120;2023-11-19T13:25:31;6.85;84.10
66373;SHT30;53168;51.146;17.120;2023-11-19T13:28:12;6.89;84.07
66373;SHT30;53168;51.146;17.120;2023-11-19T13:30:49;6.89;84.00
66373;SHT30;53168;51.146;17.120;2023-11-19T13:33:34;6.89;84.03
66373;SHT30;53168;51.146;17.120;2023-11-19T13:36:17;6.88;84.04
66373;SHT30;53168;51.146;17.120;2023-11-19T13:38:54;6.91;84.10
66373;SHT30;53168;51.146;17.120;2023-11-19T13:41:31;6.97;84.06
66373;SHT30;53168;51.146;17.120;2023-11-19T13:44:06;7.04;84.00
66373;SHT30;53168;51.146;17.120;2023-11-19T13:46:40;7.13;83.92
66373;SHT30;53168;51.146;17.120;2023-11-19T13:49:18;7.21;83.90
66373;SHT30;53168;51.146;17.120;2023-11-19T13:51:57;7.30;83.86
66373;SHT30;53168;51.146;17.120;2023-11-19T13:54:31;7.33;83.77
66373;SHT30;53168;51.146;17.120;2023-11-19T13:57:08;7.35;83.70
66373;SHT30;53168;51.146;17.120;2023-11-19T13:59:45;7.36;83.69
66373;SHT30;53168;51.146;17.120;2023-11-19T14:02:24;7.36;83.70
66373;SHT30;53168;51.146;17.120;2023-11-19T14:05:02;7.36;83.70
66373;SHT30;53168;51.146;17.120;2023-11-19T14:07:37;7.38;83.73
66373;SHT30;53168;51.146;17.120;2023-11-19T14:10:12;7.41;83.73
66373;SHT30;53168;51.146;17.120;2023-11-19T14:12:47;7.45;83.72
66373;SHT30;53168;51.146;17.120;2023-11-19T14:15:28;7.53;83.69
66373;SHT30;53168;51.146;17.120;2023-11-19T14:18:02;7.63;83.60
66373;SHT30;53168;51.146;17.120;2023-11-19T14:20:45;7.72;83.54
66373;SHT30;53168;51.146;17.120;2023-11-19T14:23:33;7.78;83.50
66373;SHT30;53168;51.146;17.120;2023-11-19T14:26:07;7.83;83.50
66373;SHT30;53168;51.146;17.120;2023-11-19T14:28:53;7.80;83.47
66373;SHT30;53168;51.146;17.120;2023-11-19T14:31:58;7.76;83.50
66373;SHT30;53168;51.146;17.120;2023-11-19T14:34:45;7.72;83.55
66373;SHT30;53168;51.146;17.120;2023-11-19T14:37:22;7.69;83.60
66373;SHT30;53168;51.146;17.120;2023-11-19T14:39:59;7.65;83.66
66373;SHT30;53168;51.146;17.120;2023-11-19T14:42:37;7.58;83.70
66373;SHT30;53168;51.146;17.120;2023-11-19T14:45:21;7.52;83.80
66373;SHT30;53168;51.146;17.120;2023-11-19T14:48:16;7.47;83.86
66373;SHT30;53168;51.146;17.120;2023-11-19T14:51:20;7.44;83.89
66373;SHT30;53168;51.146;17.120;2023-11-19T14:53:55;7.44;83.90
66373;SHT30;53168;51.146;17.120;2023-11-19T15:03:19;7.37;84.03
66373;SHT30;53168;51.146;17.120;2023-11-19T15:06:29;7.36;84.10
66373;SHT30;53168;51.146;17.120;2023-11-19T15:09:05;7.38;84.11
66373;SHT30;53168;51.146;17.120;2023-11-19T15:12:10;7.40;84.15
66373;SHT30;53168;51.146;17.120;2023-11-19T15:15:01;7.45;84.13
66373;SHT30;53168;51.146;17.120;2023-11-19T15:21:15;7.54;84.08
66373;SHT30;53168;51.146;17.120;2023-11-19T15:24:24;7.57;84.01
66373;SHT30;53168;51.146;17.120;2023-11-19T15:27:24;7.60;84.00
66373;SHT30;53168;51.146;17.120;2023-11-19T15:30:31;7.61;83.94
66373;SHT30;53168;51.146;17.120;2023-11-19T15:33:15;7.61;83.96
66373;SHT30;53168;51.146;17.120;2023-11-19T15:35:51;7.59;83.92
66373;SHT30;53168;51.146;17.120;2023-11-19T15:38:25;7.54;83.94
66373;SHT30;53168;51.146;17.120;2023-11-19T15:41:00;7.48;83.99
66373;SHT30;53168;51.146;17.120;2023-11-19T15:43:52;7.45;84.09
66373;SHT30;53168;51.146;17.120;2023-11-19T15:46:45;7.40;84.03
66373;SHT30;53168;51.146;17.120;2023-11-19T15:49:54;7.36;83.93
66373;SHT30;53168;51.146;17.120;2023-11-19T15:52:50;7.29;83.95
66373;SHT30;53168;51.146;17.120;2023-11-19T15:55:44;7.26;84.00
66373;SHT30;53168;51.146;17.120;2023-11-19T15:59:04;7.26;84.00
66373;SHT30;53168;51.146;17.120;2023-11-19T16:02:53;7.23;84.00
66373;SHT30;53168;51.146;17.120;2023-11-19T16:05:59;7.22;83.96
66373;SHT30;53168;51.146;17.120;2023-11-19T16:08:44;7.17;83.87
66373;SHT30;53168;51.146;17.120;2023-11-19T16:11:23;7.14;83.89
66373;SHT30;53168;51.146;17.120;2023-11-19T16:14:13;7.14;83.94
66373;SHT30;53168;51.146;17.120;2023-11-19T16:16:59;7.15;83.98
66373;SHT30;53168;51.146;17.120;2023-11-19T16:19:57;7.18;84.00
66373;SHT30;53168;51.146;17.120;2023-11-19T16:22:31;7.22;84.01
66373;SHT30;53168;51.146;17.120;2023-11-19T16:25:09;7.27;83.99
66373;SHT30;53168;51.146;17.120;2023-11-19T16:27:52;7.32;83.97
66373;SHT30;53168;51.146;17.120;2023-11-19T16:37:31;7.49;83.91
66373;SHT30;53168;51.146;17.120;2023-11-19T16:40:07;7.55;83.86
66373;SHT30;53168;51.146;17.120;2023-11-19T16:42:43;7.58;83.81
66373;SHT30;53168;51.146;17.120;2023-11-19T16:45:20;7.65;83.79
66373;SHT30;53168;51.146;17.120;2023-11-19T16:47:54;7.70;83.71
66373;SHT30;53168;51.146;17.120;2023-11-19T16:50:29;7.73;83.63
66373;SHT30;53168;51.146;17.120;2023-11-19T16:53:27;7.77;83.57
66373;SHT30;53168;51.146;17.120;2023-11-19T16:56:29;7.80;83.48
66373;SHT30;53168;51.146;17.120;2023-11-19T16:59:25;7.83;83.42
66373;SHT30;53168;51.146;17.120;2023-11-19T17:03:01;7.87;83.39
66373;SHT30;53168;51.146;17.120;2023-11-19T17:05:45;7.91;83.31
66373;SHT30;53168;51.146;17.120;2023-11-19T17:08:20;7.96;83.20
66373;SHT30;53168;51.146;17.120;2023-11-19T17:11:07;8.01;83.11
66373;SHT30;53168;51.146;17.120;2023-11-19T17:13:54;8.05;83.09
66373;SHT30;53168;51.146;17.120;2023-11-19T17:16:36;8.09;83.07
66373;SHT30;53168;51.146;17.120;2023-11-19T17:19:19;8.11;83.08
66373;SHT30;53168;51.146;17.120;2023-11-19T17:21:58;8.13;83.10
66373;SHT30;53168;51.146;17.120;2023-11-19T17:24:34;8.14;83.10
66373;SHT30;53168;51.146;17.120;2023-11-19T17:27:18;8.18;83.10
66373;SHT30;53168;51.146;17.120;2023-11-19T17:30:04;8.20;83.09
66373;SHT30;53168;51.146;17.120;2023-11-19T17:32:44;8.23;83.09
66373;SHT30;53168;51.146;17.120;2023-11-19T17:35:19;8.25;83.03
66373;SHT30;53168;51.146;17.120;2023-11-19T17:37:57;8.27;83.00
66373;SHT30;53168;51.146;17.120;2023-11-19T17:40:32;8.28;82.95
66373;SHT30;53168;51.146;17.120;2023-11-19T17:43:06;8.31;82.90
66373;SHT30;53168;51.146;17.120;2023-11-19T17:45:46;8.32;82.84
66373;SHT30;53168;51.146;17.120;2023-11-19T17:48:24;8.34;82.80
66373;SHT30;53168;51.146;17.120;2023-11-19T17:51:07;8.34;82.80
66373;SHT30;53168;51.146;17.120;2023-11-19T17:53:50;8.35;82.80
66373;SHT30;53168;51.146;17.120;2023-11-19T17:56:26;8.39;82.71
66373;SHT30;53168;51.146;17.120;2023-11-19T17:59:11;8.42;82.59
66373;SHT30;53168;51.146;17.120;2023-11-19T18:02:07;8.47;82.45
66373;SHT30;53168;51.146;17.120;2023-11-19T18:08:20;8.51;82.15
66373;SHT30;53168;51.146;17.120;2023-11-19T18:10:55;8.51;82.09
66373;SHT30;53168;51.146;17.120;2023-11-19T18:13:44;8.50;82.01
66373;SHT30;53168;51.146;17.120;2023-11-19T18:16:22;8.49;81.98
66373;SHT30;53168;51.146;17.120;2023-11-19T18:22:07;8.47;81.86
66373;SHT30;53168;51.146;17.120;2023-11-19T18:24:51;8.45;81.81
66373;SHT30;53168;51.146;17.120;2023-11-19T18:27:26;8.44;81.80
66373;SHT30;53168;51.146;17.120;2023-11-19T18:30:22;8.44;81.78
66373;SHT30;53168;51.146;17.120;2023-11-19T18:32:57;8.45;81.64
66373;SHT30;53168;51.146;17.120;2023-11-19T18:35:48;8.52;81.50
66373;SHT30;53168;51.146;17.120;2023-11-19T18:38:23;8.52;81.57